Colerne, United Kingdom
Current Conditions -  °F | °C
As of 9:20 PM on Sunday 23 Nov 2014 (Local Time) from EGGD Reporting Station
Clear Clear  
Wind Chill: 36°   Ceiling: Unl
Heat Index: 39°   Visibility: 6mi
Dew Point: 36°   Wind: 5mph
Humidity: 87%   Direction: 330°NNW
Pressure: 30.15"   Gusts: NA
Location:  51.44°N, 2.26°W
Report Text: EGGD 232120Z 33004KT CAVOK 04/02 Q1021
Loading
Personal Weather Stations






























Interactive Weather Map New forecast layout! Learn more

10-Day Weather Forecast

Advertisements
Track Severe Weather on mobile